createdAt,value
2015-02-25T00:00:12.002Z,100783
2015-02-25T00:00:25.325Z,100798
2015-02-25T00:00:38.653Z,100789
2015-02-25T00:00:51.774Z,100796
2015-02-25T00:01:05.074Z,100798
2015-02-25T00:01:18.422Z,100792
2015-02-25T00:01:31.545Z,100796
2015-02-25T00:01:44.772Z,100780
2015-02-25T00:01:58.126Z,100796
2015-02-25T00:02:11.272Z,100795
2015-02-25T00:02:24.432Z,100798
2015-02-25T00:02:37.686Z,100792
2015-02-25T00:02:50.944Z,100786
2015-02-25T00:03:04.321Z,100789
2015-02-25T00:03:17.414Z,100783
2015-02-25T00:03:30.660Z,100795
2015-02-25T00:03:44.033Z,100795
2015-02-25T00:03:57.176Z,100801
2015-02-25T00:04:10.354Z,100792
2015-02-25T00:04:23.775Z,100792
2015-02-25T00:04:37.020Z,100792
2015-02-25T00:04:50.147Z,100786
2015-02-25T00:05:03.536Z,100795
2015-02-25T00:05:16.838Z,100800
2015-02-25T00:05:30.158Z,100803
2015-02-25T00:05:43.321Z,100789
2015-02-25T00:05:56.487Z,100797
2015-02-25T00:06:09.884Z,100797
2015-02-25T00:06:23.097Z,100797
2015-02-25T00:06:36.211Z,100795
2015-02-25T00:06:49.581Z,100803
2015-02-25T00:07:02.836Z,100783
2015-02-25T00:07:15.970Z,100789
2015-02-25T00:07:29.287Z,100789
2015-02-25T00:07:42.587Z,100795
2015-02-25T00:07:55.687Z,100803
2015-02-25T00:08:08.958Z,100797
2015-02-25T00:08:22.113Z,100797
2015-02-25T00:08:35.479Z,100795
2015-02-25T00:08:48.751Z,100789
2015-02-25T00:09:01.876Z,100792
2015-02-25T00:09:15.248Z,100795
2015-02-25T00:09:28.597Z,100795
2015-02-25T00:09:41.685Z,100803
2015-02-25T00:09:54.931Z,100792
2015-02-25T00:10:08.309Z,100792
2015-02-25T00:10:21.401Z,100797
2015-02-25T00:10:34.595Z,100791
2015-02-25T00:10:47.959Z,100803
2015-02-25T00:11:01.115Z,100797
2015-02-25T00:11:14.424Z,100803
2015-02-25T00:11:28.105Z,100800
2015-02-25T00:11:41.503Z,100806
2015-02-25T00:11:54.867Z,100797
2015-02-25T00:12:07.970Z,100797
2015-02-25T00:12:21.184Z,100795
2015-02-25T00:12:34.549Z,100800
2015-02-25T00:12:47.711Z,100795
2015-02-25T00:13:00.933Z,100800
2015-02-25T00:13:14.322Z,100800
2015-02-25T00:13:27.510Z,100795
2015-02-25T00:13:40.589Z,100806
2015-02-25T00:13:53.882Z,100785
2015-02-25T00:14:07.098Z,100803
2015-02-25T00:14:20.500Z,100797
2015-02-25T00:14:33.641Z,100800
2015-02-25T00:14:46.784Z,100815
2015-02-25T00:15:00.163Z,100812
2015-02-25T00:15:13.377Z,100803
2015-02-25T00:15:26.479Z,100806
2015-02-25T00:15:39.874Z,100806
2015-02-25T00:15:53.125Z,100809
2015-02-25T00:16:06.230Z,100803
2015-02-25T00:16:19.531Z,100802
2015-02-25T00:16:32.883Z,100809
2015-02-25T00:16:46.001Z,100806
2015-02-25T00:16:59.266Z,100805
2015-02-25T00:17:12.656Z,100812
2015-02-25T00:17:25.779Z,100821
2015-02-25T00:17:39.004Z,100812
2015-02-25T00:17:52.377Z,100808
2015-02-25T00:18:05.520Z,100805
2015-02-25T00:18:18.678Z,100815
2015-02-25T00:18:32.055Z,100802
2015-02-25T00:18:45.283Z,100805
2015-02-25T00:18:58.374Z,100799
2015-02-25T00:19:11.771Z,100815
2015-02-25T00:19:25.028Z,100808
2015-02-25T00:19:38.329Z,100811
2015-02-25T00:19:51.449Z,100811
2015-02-25T00:20:04.620Z,100814
2015-02-25T00:20:17.991Z,100814
2015-02-25T00:20:31.210Z,100811
2015-02-25T00:20:44.321Z,100808
2015-02-25T00:20:57.719Z,100808
2015-02-25T00:21:11.006Z,100814
2015-02-25T00:21:24.133Z,100808
2015-02-25T00:21:37.496Z,100808
2015-02-25T00:21:50.825Z,100805
2015-02-25T00:22:03.926Z,100808
2015-02-25T00:22:17.199Z,100811
2015-02-25T00:22:30.347Z,100805
2015-02-25T00:22:43.738Z,100814
2015-02-25T00:22:56.993Z,100802
2015-02-25T00:23:10.092Z,100799
2015-02-25T00:23:23.410Z,100817
2015-02-25T00:23:36.713Z,100802
2015-02-25T00:23:49.820Z,100802
2015-02-25T00:24:03.078Z,100814
2015-02-25T00:24:16.503Z,100808
2015-02-25T00:24:29.598Z,100808
2015-02-25T00:24:42.827Z,100808
2015-02-25T00:24:56.211Z,100823
2015-02-25T00:25:09.386Z,100805
2015-02-25T00:25:22.758Z,100802
2015-02-25T00:25:35.889Z,100817
2015-02-25T00:25:49.172Z,100811
2015-02-25T00:26:02.529Z,100814
2015-02-25T00:26:15.625Z,100802
2015-02-25T00:26:28.823Z,100817
2015-02-25T00:26:42.187Z,100814
2015-02-25T00:26:55.337Z,100814
2015-02-25T00:27:08.490Z,100814
2015-02-25T00:27:21.843Z,100826
2015-02-25T00:27:35.071Z,100814
2015-02-25T00:27:48.190Z,100811
2015-02-25T00:28:01.539Z,100804
2015-02-25T00:28:14.785Z,100811
2015-02-25T00:28:27.862Z,100820
2015-02-25T00:28:41.190Z,100811
2015-02-25T00:28:54.500Z,100808
2015-02-25T00:29:07.634Z,100811
2015-02-25T00:29:20.938Z,100801
2015-02-25T00:29:34.346Z,100814
2015-02-25T00:29:47.469Z,100807
2015-02-25T00:30:00.664Z,100811
2015-02-25T00:30:14.053Z,100804
2015-02-25T00:30:27.218Z,100810
2015-02-25T00:30:40.354Z,100817
2015-02-25T00:30:53.593Z,100804
2015-02-25T00:31:06.849Z,100810
2015-02-25T00:31:20.276Z,100820
2015-02-25T00:31:33.380Z,100807
2015-02-25T00:31:46.609Z,100810
2015-02-25T00:31:59.975Z,100816
2015-02-25T00:32:13.156Z,100810
2015-02-25T00:32:26.326Z,100807
2015-02-25T00:32:39.734Z,100816
2015-02-25T00:32:52.962Z,100807
2015-02-25T00:33:06.083Z,100826
2015-02-25T00:33:19.480Z,100804
2015-02-25T00:33:32.722Z,100816
2015-02-25T00:33:45.993Z,100822
2015-02-25T00:33:59.153Z,100804
2015-02-25T00:34:12.294Z,100810
2015-02-25T00:34:25.672Z,100807
2015-02-25T00:34:38.915Z,100810
2015-02-25T00:34:52.008Z,100813
2015-02-25T00:35:05.411Z,100810
2015-02-25T00:35:18.678Z,100816
2015-02-25T00:35:31.769Z,100810
2015-02-25T00:35:45.078Z,100813
2015-02-25T00:35:58.407Z,100816
2015-02-25T00:36:11.528Z,100816
2015-02-25T00:36:24.811Z,100813
2015-02-25T00:36:37.965Z,100813
2015-02-25T00:36:51.363Z,100804
2015-02-25T00:37:04.629Z,100810
2015-02-25T00:37:17.717Z,100813
2015-02-25T00:37:31.040Z,100816
2015-02-25T00:37:44.336Z,100807
2015-02-25T00:37:57.440Z,100810
2015-02-25T00:38:10.707Z,100816
2015-02-25T00:38:24.065Z,100813
2015-02-25T00:38:37.178Z,100816
2015-02-25T00:38:50.404Z,100807
2015-02-25T00:39:03.756Z,100804
2015-02-25T00:39:16.948Z,100807
2015-02-25T00:39:30.119Z,100807
2015-02-25T00:39:43.523Z,100816
2015-02-25T00:39:56.745Z,100807
2015-02-25T00:40:09.870Z,100797
2015-02-25T00:40:23.281Z,100819
2015-02-25T00:40:36.581Z,100816
2015-02-25T00:40:49.685Z,100819
2015-02-25T00:41:02.974Z,100813
2015-02-25T00:41:16.279Z,100819
2015-02-25T00:41:29.926Z,100806
2015-02-25T00:41:43.221Z,100819
2015-02-25T00:41:56.570Z,100797
2015-02-25T00:42:09.756Z,100816
2015-02-25T00:42:23.010Z,100809
2015-02-25T00:42:36.133Z,100819
2015-02-25T00:42:49.481Z,100816
2015-02-25T00:43:02.828Z,100809
2015-02-25T00:43:15.957Z,100816
2015-02-25T00:43:29.214Z,100816
2015-02-25T00:43:42.599Z,100816
2015-02-25T00:43:55.703Z,100816
2015-02-25T00:44:10.045Z,100812
2015-02-25T00:44:23.523Z,100803
2015-02-25T00:44:36.711Z,100803
2015-02-25T00:44:49.900Z,100806
2015-02-25T00:45:03.126Z,100816
2015-02-25T00:45:16.472Z,100809
2015-02-25T00:45:29.824Z,100816
2015-02-25T00:45:42.911Z,100809
2015-02-25T00:45:56.107Z,100812
2015-02-25T00:46:09.480Z,100803
2015-02-25T00:46:22.619Z,100809
2015-02-25T00:46:35.736Z,100800
2015-02-25T00:46:49.138Z,100803
2015-02-25T00:47:02.348Z,100806
2015-02-25T00:47:15.460Z,100803
2015-02-25T00:47:28.828Z,100806
2015-02-25T00:47:42.124Z,100809
2015-02-25T00:47:55.414Z,100819
2015-02-25T00:48:08.625Z,100812
2015-02-25T00:48:21.803Z,100800
2015-02-25T00:48:35.182Z,100806
2015-02-25T00:48:48.379Z,100800
2015-02-25T00:49:01.458Z,100812
2015-02-25T00:49:14.829Z,100818
2015-02-25T00:49:28.076Z,100812
2015-02-25T00:49:41.184Z,100819
2015-02-25T00:49:54.489Z,100812
2015-02-25T00:50:07.821Z,100819
2015-02-25T00:50:20.931Z,100812
2015-02-25T00:50:34.203Z,100828
2015-02-25T00:50:47.354Z,100816
2015-02-25T00:51:00.699Z,100806
2015-02-25T00:51:13.955Z,100828
2015-02-25T00:51:27.096Z,100812
2015-02-25T00:51:40.435Z,100812
2015-02-25T00:51:53.738Z,100806
2015-02-25T00:52:06.839Z,100816
2015-02-25T00:52:20.146Z,100828
2015-02-25T00:52:33.558Z,100825
2015-02-25T00:52:46.697Z,100825
2015-02-25T00:52:59.960Z,100819
2015-02-25T00:53:13.375Z,100809
2015-02-25T00:53:26.511Z,100809
2015-02-25T00:53:39.819Z,100809
2015-02-25T00:53:52.884Z,100822
2015-02-25T00:54:06.145Z,100822
2015-02-25T00:54:19.530Z,100822
2015-02-25T00:54:32.688Z,100831
2015-02-25T00:54:45.895Z,100819
2015-02-25T00:54:59.281Z,100819
2015-02-25T00:55:12.417Z,100816
2015-02-25T00:55:25.586Z,100825
2015-02-25T00:55:38.963Z,100828
2015-02-25T00:55:52.137Z,100825
2015-02-25T00:56:05.252Z,100822
2015-02-25T00:56:18.586Z,100831
2015-02-25T00:56:31.830Z,100828
2015-02-25T00:56:45.258Z,100837
2015-02-25T00:56:58.428Z,100828
2015-02-25T00:57:11.597Z,100828
2015-02-25T00:57:24.990Z,100831
2015-02-25T00:57:38.233Z,100818
2015-02-25T00:57:51.347Z,100831
2015-02-25T00:58:04.706Z,100834
2015-02-25T00:58:17.957Z,100837
2015-02-25T00:58:31.135Z,100837
2015-02-25T00:58:44.452Z,100825
2015-02-25T00:58:57.759Z,100834
2015-02-25T00:59:10.988Z,100825
2015-02-25T00:59:24.210Z,100837
2015-02-25T00:59:37.312Z,100831
2015-02-25T00:59:50.666Z,100825
2015-02-25T01:00:03.922Z,100831
2015-02-25T01:00:17.035Z,100845
2015-02-25T01:00:30.376Z,100831
2015-02-25T01:00:43.699Z,100851
2015-02-25T01:00:56.824Z,100837
2015-02-25T01:01:10.125Z,100845
2015-02-25T01:01:23.566Z,100837
2015-02-25T01:01:36.711Z,100843
2015-02-25T01:01:49.968Z,100837
2015-02-25T01:02:03.345Z,100834
2015-02-25T01:02:16.534Z,100843
2015-02-25T01:02:29.710Z,100848
2015-02-25T01:02:43.104Z,100843
2015-02-25T01:02:56.337Z,100848
2015-02-25T01:03:09.427Z,100845
2015-02-25T01:03:22.794Z,100843
2015-02-25T01:03:36.064Z,100843
2015-02-25T01:03:49.152Z,100843
2015-02-25T01:04:02.485Z,100843
2015-02-25T01:04:15.828Z,100845
2015-02-25T01:04:28.926Z,100837
2015-02-25T01:04:42.193Z,100837
2015-02-25T01:04:55.339Z,100837
2015-02-25T01:05:08.734Z,100854
2015-02-25T01:05:22.007Z,100845
2015-02-25T01:05:35.118Z,100837
2015-02-25T01:05:48.473Z,100837
2015-02-25T01:06:01.788Z,100848
2015-02-25T01:06:14.920Z,100851
2015-02-25T01:06:28.224Z,100848
2015-02-25T01:06:41.574Z,100854
2015-02-25T01:06:54.661Z,100860
2015-02-25T01:07:07.907Z,100848
2015-02-25T01:07:21.294Z,100854
2015-02-25T01:07:34.450Z,100848
2015-02-25T01:07:47.748Z,100843
2015-02-25T01:08:00.889Z,100845
2015-02-25T01:08:14.153Z,100837
2015-02-25T01:08:27.526Z,100848
2015-02-25T01:08:40.610Z,100854
2015-02-25T01:08:53.808Z,100848
2015-02-25T01:09:07.206Z,100854
2015-02-25T01:09:20.348Z,100857
2015-02-25T01:09:33.552Z,100860
2015-02-25T01:09:46.950Z,100848
2015-02-25T01:10:00.169Z,100843
2015-02-25T01:10:13.280Z,100854
2015-02-25T01:10:26.576Z,100845
2015-02-25T01:10:39.762Z,100845
2015-02-25T01:10:53.089Z,100845
2015-02-25T01:11:06.237Z,100851
2015-02-25T01:11:19.380Z,100851
2015-02-25T01:11:37.181Z,100848
2015-02-25T01:11:50.338Z,100848
2015-02-25T01:12:03.431Z,100837
2015-02-25T01:12:16.777Z,100843
2015-02-25T01:12:30.029Z,100851
2015-02-25T01:12:43.102Z,100833
2015-02-25T01:12:56.400Z,100854
2015-02-25T01:13:09.741Z,100845
2015-02-25T01:13:22.962Z,100854
2015-02-25T01:13:36.222Z,100848
2015-02-25T01:13:49.361Z,100848
2015-02-25T01:14:02.752Z,100854
2015-02-25T01:14:16.026Z,100854
2015-02-25T01:14:29.133Z,100854
2015-02-25T01:14:42.442Z,100845
2015-02-25T01:14:55.711Z,100848
2015-02-25T01:15:08.811Z,100854
2015-02-25T01:15:22.081Z,100851
2015-02-25T01:15:35.452Z,100851
2015-02-25T01:15:48.530Z,100851
2015-02-25T01:16:01.751Z,100844
2015-02-25T01:16:14.933Z,100851
2015-02-25T01:16:28.275Z,100857
2015-02-25T01:16:41.580Z,100857
2015-02-25T01:16:54.672Z,100854
2015-02-25T01:17:07.940Z,100863
2015-02-25T01:17:21.326Z,100854
2015-02-25T01:17:34.442Z,100854
2015-02-25T01:17:47.691Z,100847
2015-02-25T01:18:01.095Z,100860
2015-02-25T01:18:14.257Z,100866
2015-02-25T01:18:27.411Z,100860
2015-02-25T01:18:40.797Z,100860
2015-02-25T01:18:54.005Z,100857
2015-02-25T01:19:07.397Z,100866
2015-02-25T01:19:20.478Z,100863
2015-02-25T01:19:33.682Z,100860
2015-02-25T01:19:47.068Z,100872
2015-02-25T01:20:00.237Z,100869
2015-02-25T01:20:13.416Z,100860
2015-02-25T01:20:26.808Z,100857
2015-02-25T01:20:40.024Z,100857
2015-02-25T01:20:53.144Z,100857
2015-02-25T01:21:06.529Z,100857
2015-02-25T01:21:19.801Z,100863
2015-02-25T01:21:32.913Z,100844
2015-02-25T01:21:46.289Z,100875
2015-02-25T01:21:59.459Z,100856
2015-02-25T01:22:12.818Z,100866
2015-02-25T01:22:26.016Z,100866
2015-02-25T01:22:39.099Z,100869
2015-02-25T01:22:52.506Z,100872
2015-02-25T01:23:05.741Z,100866
2015-02-25T01:23:18.817Z,100869
2015-02-25T01:23:32.153Z,100853
2015-02-25T01:23:45.473Z,100875
2015-02-25T01:23:58.584Z,100869
2015-02-25T01:24:11.851Z,100866
2015-02-25T01:24:25.216Z,100862
2015-02-25T01:24:38.326Z,100862
2015-02-25T01:24:51.581Z,100859
2015-02-25T01:25:04.977Z,100859
2015-02-25T01:25:18.133Z,100866
2015-02-25T01:25:31.400Z,100856
2015-02-25T01:25:44.750Z,100868
2015-02-25T01:25:57.921Z,100859
2015-02-25T01:26:11.074Z,100865
2015-02-25T01:26:24.435Z,100862
2015-02-25T01:26:37.702Z,100875
2015-02-25T01:26:50.796Z,100862
2015-02-25T01:27:04.081Z,100872
2015-02-25T01:27:17.347Z,100865
2015-02-25T01:27:30.558Z,100868
2015-02-25T01:27:43.795Z,100865
2015-02-25T01:27:56.905Z,100868
2015-02-25T01:28:10.248Z,100856
2015-02-25T01:28:23.489Z,100871
2015-02-25T01:28:36.564Z,100856
2015-02-25T01:28:49.850Z,100865
2015-02-25T01:29:03.169Z,100878
2015-02-25T01:29:16.250Z,100859
2015-02-25T01:29:29.536Z,100868
2015-02-25T01:29:42.952Z,100862
2015-02-25T01:29:56.051Z,100865
2015-02-25T01:30:09.270Z,100868
2015-02-25T01:30:22.500Z,100871
2015-02-25T01:30:35.806Z,100862
2015-02-25T01:30:49.112Z,100874
2015-02-25T01:31:02.170Z,100856
2015-02-25T01:31:15.433Z,100877
2015-02-25T01:31:28.788Z,100856
2015-02-25T01:31:41.862Z,100871
2015-02-25T01:31:55.044Z,100868
2015-02-25T01:32:08.438Z,100865
2015-02-25T01:32:21.595Z,100868
2015-02-25T01:32:34.742Z,100868
2015-02-25T01:32:48.126Z,100877
2015-02-25T01:33:01.355Z,100877
2015-02-25T01:33:14.680Z,100877
2015-02-25T01:33:27.772Z,100881
2015-02-25T01:33:41.008Z,100884
2015-02-25T01:33:54.366Z,100871
2015-02-25T01:34:07.506Z,100877
2015-02-25T01:34:20.656Z,100877
2015-02-25T01:34:34.041Z,100877
2015-02-25T01:34:47.235Z,100874
2015-02-25T01:35:00.296Z,100881
2015-02-25T01:35:13.764Z,100868
2015-02-25T01:35:27.011Z,100874
2015-02-25T01:35:40.105Z,100874
2015-02-25T01:35:53.446Z,100874
2015-02-25T01:36:06.586Z,100880
2015-02-25T01:36:19.977Z,100871
2015-02-25T01:36:33.192Z,100874
2015-02-25T01:36:46.314Z,100887
2015-02-25T01:36:59.705Z,100883
2015-02-25T01:37:12.988Z,100877
2015-02-25T01:37:26.067Z,100890
2015-02-25T01:37:39.388Z,100880
2015-02-25T01:37:52.693Z,100871
2015-02-25T01:38:05.804Z,100890
2015-02-25T01:38:19.042Z,100883
2015-02-25T01:38:32.453Z,100883
2015-02-25T01:38:45.596Z,100887
2015-02-25T01:38:58.832Z,100887
2015-02-25T01:39:11.918Z,100883
2015-02-25T01:39:25.275Z,100877
2015-02-25T01:39:38.569Z,100874
2015-02-25T01:39:51.660Z,100874
2015-02-25T01:40:04.920Z,100871
2015-02-25T01:40:18.275Z,100883
2015-02-25T01:40:31.412Z,100871
2015-02-25T01:40:44.630Z,100890
2015-02-25T01:40:57.988Z,100880
2015-02-25T01:41:11.185Z,100883
2015-02-25T01:41:24.457Z,100877
2015-02-25T01:41:38.026Z,100890
2015-02-25T01:41:51.293Z,100887
2015-02-25T01:42:04.639Z,100880
2015-02-25T01:42:17.738Z,100890
2015-02-25T01:42:30.967Z,100877
2015-02-25T01:42:44.342Z,100886
2015-02-25T01:42:57.485Z,100877
2015-02-25T01:43:10.660Z,100880
2015-02-25T01:43:24.027Z,100886
2015-02-25T01:43:37.205Z,100874
2015-02-25T01:43:50.294Z,100865
2015-02-25T01:44:03.656Z,100871
2015-02-25T01:44:16.896Z,100880
2015-02-25T01:44:30.165Z,100877
2015-02-25T01:44:43.342Z,100877
2015-02-25T01:44:56.488Z,100868
2015-02-25T01:45:09.896Z,100886
2015-02-25T01:46:18.666Z,100880
2015-02-25T01:46:31.883Z,100880
2015-02-25T01:46:45.213Z,100883
2015-02-25T01:46:58.469Z,100877
2015-02-25T01:47:11.645Z,100877
2015-02-25T01:47:24.995Z,100871
2015-02-25T01:47:38.278Z,100880
2015-02-25T01:47:51.479Z,100871
2015-02-25T01:48:04.771Z,100880
2015-02-25T01:48:18.062Z,100871
2015-02-25T01:48:31.264Z,100889
2015-02-25T01:48:44.552Z,100874
2015-02-25T01:48:57.914Z,100892
2015-02-25T01:49:11.119Z,100874
2015-02-25T01:49:24.382Z,100880
2015-02-25T01:49:37.714Z,100883
2015-02-25T01:49:50.958Z,100871
2015-02-25T01:50:04.196Z,100874
2015-02-25T01:50:17.488Z,100880
2015-02-25T01:50:30.732Z,100886
2015-02-25T01:50:43.939Z,100883
2015-02-25T01:50:57.225Z,100874
2015-02-25T01:51:10.501Z,100889
2015-02-25T01:51:23.815Z,100874
2015-02-25T01:51:37.021Z,100874
2015-02-25T01:51:50.250Z,100874
2015-02-25T01:52:03.590Z,100880
2015-02-25T01:52:16.847Z,100871
2015-02-25T01:52:30.058Z,100886
2015-02-25T01:52:43.417Z,100871
2015-02-25T01:52:56.721Z,100871
2015-02-25T01:53:09.978Z,100874
2015-02-25T01:53:23.268Z,100889
2015-02-25T01:53:36.569Z,100892
2015-02-25T01:53:49.823Z,100877
2015-02-25T01:54:03.079Z,100877
2015-02-25T01:54:16.302Z,100889
2015-02-25T01:54:29.631Z,100877
2015-02-25T01:54:43.273Z,100874
2015-02-25T01:54:56.459Z,100883
2015-02-25T01:55:09.764Z,100889
2015-02-25T01:55:23.044Z,100886
2015-02-25T01:55:36.234Z,100880
2015-02-25T01:55:49.494Z,100889
2015-02-25T01:56:02.832Z,100880
2015-02-25T01:56:16.039Z,100880
2015-02-25T01:56:29.305Z,100886
2015-02-25T01:56:42.619Z,100880
2015-02-25T01:56:55.945Z,100874
2015-02-25T01:57:09.250Z,100886
2015-02-25T01:57:22.463Z,100880
2015-02-25T01:57:35.811Z,100880
2015-02-25T01:57:49.145Z,100886
2015-02-25T01:58:02.425Z,100880
2015-02-25T01:58:15.676Z,100877
2015-02-25T01:58:29.005Z,100880
2015-02-25T01:58:42.203Z,100886
2015-02-25T01:58:55.423Z,100877
2015-02-25T01:59:08.734Z,100883
2015-02-25T01:59:21.968Z,100880
2015-02-25T01:59:35.294Z,100892
2015-02-25T01:59:48.556Z,100886
2015-02-25T02:00:01.827Z,100883
2015-02-25T02:00:15.239Z,100895
2015-02-25T02:00:28.540Z,100883
2015-02-25T02:00:41.751Z,100889
2015-02-25T02:00:55.080Z,100883
2015-02-25T02:01:08.366Z,100871
2015-02-25T02:01:21.578Z,100883
2015-02-25T02:01:34.904Z,100886
2015-02-25T02:01:48.179Z,100886
2015-02-25T02:02:01.359Z,100886
2015-02-25T02:02:14.680Z,100898
2015-02-25T02:02:27.916Z,100898
2015-02-25T02:02:41.247Z,100892
2015-02-25T02:02:54.512Z,100892
2015-02-25T02:03:07.727Z,100898
2015-02-25T02:03:21.049Z,100880
2015-02-25T02:03:34.344Z,100898
2015-02-25T02:03:47.562Z,100886
2015-02-25T02:04:00.895Z,100895
2015-02-25T02:04:14.186Z,100892
2015-02-25T02:04:27.423Z,100892
2015-02-25T02:04:40.740Z,100886
2015-02-25T02:04:54.088Z,100892
2015-02-25T02:05:07.340Z,100901
2015-02-25T02:05:20.635Z,100898
2015-02-25T02:05:33.856Z,100892
2015-02-25T02:05:47.206Z,100901
2015-02-25T02:06:00.486Z,100898
2015-02-25T02:06:13.684Z,100892
2015-02-25T02:06:26.982Z,100898
2015-02-25T02:06:40.298Z,100892
2015-02-25T02:06:53.498Z,100883
2015-02-25T02:07:06.740Z,100889
2015-02-25T02:07:20.053Z,100892
2015-02-25T02:07:33.256Z,100892
2015-02-25T02:07:46.491Z,100889
2015-02-25T02:07:59.794Z,100889
2015-02-25T02:08:13.066Z,100895
2015-02-25T02:08:26.382Z,100901
2015-02-25T02:08:39.599Z,100901
2015-02-25T02:08:52.864Z,100901
2015-02-25T02:09:06.196Z,100901
2015-02-25T02:09:19.417Z,100886
2015-02-25T02:09:32.643Z,100904
2015-02-25T02:09:45.980Z,100892
2015-02-25T02:09:59.218Z,100892
2015-02-25T02:10:12.420Z,100889
2015-02-25T02:10:25.753Z,100895
2015-02-25T02:10:39.038Z,100898
2015-02-25T02:10:52.227Z,100901
2015-02-25T02:11:05.525Z,100901
2015-02-25T02:11:18.825Z,100889
2015-02-25T02:11:32.408Z,100892
2015-02-25T02:11:45.705Z,100901
2015-02-25T02:11:59.059Z,100907
2015-02-25T02:12:12.278Z,100901
2015-02-25T02:12:25.569Z,100895
2015-02-25T02:12:38.897Z,100892
2015-02-25T02:12:52.154Z,100904
2015-02-25T02:13:05.461Z,100892
2015-02-25T02:13:18.790Z,100898
2015-02-25T02:13:32.045Z,100898
2015-02-25T02:13:45.340Z,100898
2015-02-25T02:13:58.541Z,100895
2015-02-25T02:14:11.775Z,100889
2015-02-25T02:14:25.097Z,100895
2015-02-25T02:14:38.321Z,100904
2015-02-25T02:14:51.555Z,100898
2015-02-25T02:15:04.878Z,100904
2015-02-25T02:15:18.130Z,100901
2015-02-25T02:15:31.344Z,100898
2015-02-25T02:15:44.681Z,100904
2015-02-25T02:15:57.970Z,100898
2015-02-25T02:16:11.182Z,100898
2015-02-25T02:16:24.496Z,100892
2015-02-25T02:16:37.710Z,100898
2015-02-25T02:16:51.032Z,100904
2015-02-25T02:17:04.277Z,100901
2015-02-25T02:17:17.524Z,100895
2015-02-25T02:17:30.856Z,100901
2015-02-25T02:17:44.149Z,100904
2015-02-25T02:17:57.369Z,100901
2015-02-25T02:18:10.678Z,100898
2015-02-25T02:18:23.996Z,100895
2015-02-25T02:18:37.234Z,100904
2015-02-25T02:18:50.574Z,100914
2015-02-25T02:19:03.916Z,100908
2015-02-25T02:19:17.163Z,100911
2015-02-25T02:19:30.443Z,100898
2015-02-25T02:19:43.646Z,100898
2015-02-25T02:19:56.931Z,100911
2015-02-25T02:20:10.252Z,100904
2015-02-25T02:20:23.445Z,100911
2015-02-25T02:20:36.744Z,100898
2015-02-25T02:20:50.103Z,100904
2015-02-25T02:21:03.319Z,100895
2015-02-25T02:21:16.554Z,100886
2015-02-25T02:21:29.870Z,100895
2015-02-25T02:21:43.103Z,100907
2015-02-25T02:21:56.333Z,100901
2015-02-25T02:22:09.617Z,100892
2015-02-25T02:22:22.933Z,100910
2015-02-25T02:22:36.255Z,100910
2015-02-25T02:22:49.482Z,100898
2015-02-25T02:23:02.738Z,100904
2015-02-25T02:23:16.085Z,100901
2015-02-25T02:23:29.346Z,100913
2015-02-25T02:23:42.582Z,100901
2015-02-25T02:23:55.912Z,100913
2015-02-25T02:24:09.162Z,100907
2015-02-25T02:24:22.369Z,100898
2015-02-25T02:24:35.733Z,100907
2015-02-25T02:24:48.998Z,100910
2015-02-25T02:25:02.285Z,100907
2015-02-25T02:25:15.569Z,100916
2015-02-25T02:25:28.850Z,100907
2015-02-25T02:25:42.221Z,100910
2015-02-25T02:25:55.512Z,100907
2015-02-25T02:26:08.741Z,100895
2015-02-25T02:26:22.065Z,100910
2015-02-25T02:26:35.351Z,100907
2015-02-25T02:26:48.577Z,100916
2015-02-25T02:27:01.881Z,100907
2015-02-25T02:27:15.195Z,100913
2015-02-25T02:27:28.403Z,100907
2015-02-25T02:27:41.678Z,100913
2015-02-25T02:27:54.926Z,100916
2015-02-25T02:28:08.287Z,100907
2015-02-25T02:28:21.574Z,100910
2015-02-25T02:28:34.768Z,100904
2015-02-25T02:28:48.055Z,100901
2015-02-25T02:29:01.370Z,100895
2015-02-25T02:29:14.586Z,100907
2015-02-25T02:29:27.852Z,100913
2015-02-25T02:29:41.207Z,100907
2015-02-25T02:29:54.417Z,100901
2015-02-25T02:30:07.688Z,100901
2015-02-25T02:30:21.023Z,100895
2015-02-25T02:30:34.259Z,100904
2015-02-25T02:30:47.602Z,100901
2015-02-25T02:31:00.819Z,100904
2015-02-25T02:31:14.121Z,100895
2015-02-25T02:31:27.449Z,100904
2015-02-25T02:31:40.664Z,100901
2015-02-25T02:31:53.914Z,100916
2015-02-25T02:32:07.281Z,100907
2015-02-25T02:32:20.488Z,100895
2015-02-25T02:32:33.721Z,100901
2015-02-25T02:32:47.057Z,100913
2015-02-25T02:33:00.341Z,100901
2015-02-25T02:33:13.599Z,100898
2015-02-25T02:33:26.902Z,100913
2015-02-25T02:33:40.216Z,100910
2015-02-25T02:33:53.394Z,100904
2015-02-25T02:34:06.667Z,100901
2015-02-25T02:34:19.972Z,100901
2015-02-25T02:34:33.174Z,100913
2015-02-25T02:34:46.439Z,100913
2015-02-25T02:34:59.758Z,100907
2015-02-25T02:35:12.987Z,100907
2015-02-25T02:35:26.242Z,100907
2015-02-25T02:35:39.555Z,100904
2015-02-25T02:35:52.777Z,100913
2015-02-25T02:36:05.996Z,100913
2015-02-25T02:36:19.248Z,100907
2015-02-25T02:36:32.533Z,100904
2015-02-25T02:36:45.869Z,100907
2015-02-25T02:36:59.068Z,100892
2015-02-25T02:37:12.339Z,100895
2015-02-25T02:37:25.704Z,100901
2015-02-25T02:37:38.932Z,100904
2015-02-25T02:37:52.166Z,100916
2015-02-25T02:38:05.552Z,100913
2015-02-25T02:38:18.792Z,100901
2015-02-25T02:38:31.993Z,100907
2015-02-25T02:38:45.297Z,100913
2015-02-25T02:38:58.558Z,100904
2015-02-25T02:39:11.834Z,100898
2015-02-25T02:39:25.042Z,100907
2015-02-25T02:39:38.255Z,100916
2015-02-25T02:39:51.544Z,100919
2015-02-25T02:40:04.784Z,100901
2015-02-25T02:40:17.969Z,100913
2015-02-25T02:40:31.316Z,100916
2015-02-25T02:40:44.580Z,100907
2015-02-25T02:40:57.777Z,100919
2015-02-25T02:41:11.061Z,100919
2015-02-25T02:41:24.594Z,100919
2015-02-25T02:41:37.966Z,100922
2015-02-25T02:41:51.265Z,100913
2015-02-25T02:42:04.486Z,100916
2015-02-25T02:42:17.805Z,100913
2015-02-25T02:42:31.078Z,100925
2015-02-25T02:42:44.383Z,100904
2015-02-25T02:42:57.704Z,100904
2015-02-25T02:43:11.038Z,100925
2015-02-25T02:43:24.246Z,100913
2015-02-25T02:43:37.543Z,100907
2015-02-25T02:43:50.858Z,100907
2015-02-25T02:44:04.040Z,100913
2015-02-25T02:44:17.333Z,100901
2015-02-25T02:44:30.652Z,100919
2015-02-25T02:44:43.870Z,100907
2015-02-25T02:44:57.167Z,100901
2015-02-25T02:45:10.360Z,100907
2015-02-25T02:45:23.642Z,100916
2015-02-25T02:45:37.023Z,100901
2015-02-25T02:45:50.225Z,100901
2015-02-25T02:46:03.476Z,100907
2015-02-25T02:46:16.788Z,100904
2015-02-25T02:46:30.026Z,100910